Time;durP1;ratioP1;P1;durP2;ratioP2;P2;SDS_P1;SDS_P2;PMS_P1;PMS_P2;Temp;Humidity;BMP_temperature;BMP_pressure;BME280_temperature;BME280_humidity;BME280_pressure;Samples;Min_cycle;Max_cycle;Signal;HPM_P1;HPM_P2
2024/02/26 00:01:21;;;;;;;0.00;0.00;;;24.80;49.10;;;;;;5014842;28;20211;-43
2024/02/26 00:03:52;;;;;;;0.00;0.00;;;24.80;49.20;;;;;;5015359;28;20221;-42
2024/02/26 00:06:24;;;;;;;0.10;0.10;;;24.90;49.10;;;;;;5015182;28;20604;-42
2024/02/26 00:08:55;;;;;;;0.00;0.00;;;24.90;49.20;;;;;;5014876;28;20197;-42
2024/02/26 00:11:26;;;;;;;0.00;0.00;;;24.90;49.10;;;;;;5014587;28;20204;-42
2024/02/26 00:13:57;;;;;;;0.00;0.00;;;24.90;49.10;;;;;;5014768;28;20552;-42
2024/02/26 00:16:28;;;;;;;0.00;0.00;;;25.00;49.10;;;;;;5012757;28;20565;-42
2024/02/26 00:18:59;;;;;;;0.00;0.00;;;25.00;49.10;;;;;;5014122;28;20208;-41
2024/02/26 00:21:32;;;;;;;0.00;0.00;;;25.00;49.10;;;;;;5014869;28;20204;-43
2024/02/26 00:24:02;;;;;;;0.00;0.00;;;25.00;49.10;;;;;;5014437;28;20231;-41
2024/02/26 00:26:33;;;;;;;0.00;0.00;;;25.10;49.10;;;;;;5014833;28;20538;-41
2024/02/26 00:29:03;;;;;;;0.00;0.00;;;25.10;49.00;;;;;;5014604;28;20197;-42
2024/02/26 00:31:34;;;;;;;0.00;0.00;;;25.10;49.00;;;;;;5014419;28;20201;-41
2024/02/26 00:34:05;;;;;;;0.00;0.00;;;25.10;49.00;;;;;;5013462;28;20197;-42
2024/02/26 00:36:37;;;;;;;0.00;0.00;;;25.10;48.80;;;;;;5014206;28;20201;-42
2024/02/26 00:39:09;;;;;;;0.00;0.00;;;25.20;48.80;;;;;;5014609;28;20192;-42
2024/02/26 00:41:43;;;;;;;0.00;0.00;;;25.20;48.80;;;;;;5014562;28;20204;-42
2024/02/26 00:44:13;;;;;;;0.00;0.00;;;25.20;48.80;;;;;;5006484;28;20228;-42
2024/02/26 00:46:44;;;;;;;0.00;0.00;;;25.20;48.80;;;;;;4994141;28;20592;-42
2024/02/26 00:49:15;;;;;;;0.00;0.00;;;25.30;48.80;;;;;;4994759;28;20217;-42
2024/02/26 00:51:47;;;;;;;0.00;0.00;;;25.30;48.70;;;;;;4994987;28;20206;-42
2024/02/26 00:54:18;;;;;;;0.00;0.00;;;25.30;48.60;;;;;;4994061;28;20208;-41
2024/02/26 00:56:48;;;;;;;0.00;0.00;;;25.30;48.60;;;;;;4994231;28;20555;-42
2024/02/26 00:59:19;;;;;;;0.00;0.00;;;25.30;48.50;;;;;;4993975;28;20634;-42
2024/02/26 01:01:50;;;;;;;0.00;0.00;;;25.40;48.50;;;;;;4994011;28;20205;-42
2024/02/26 01:04:20;;;;;;;0.00;0.00;;;25.40;48.50;;;;;;4993690;28;20232;-43
2024/02/26 01:06:53;;;;;;;0.00;0.00;;;25.40;48.50;;;;;;5003029;28;20568;-42
2024/02/26 01:09:23;;;;;;;0.00;0.00;;;25.40;48.50;;;;;;5013758;28;20220;-41
2024/02/26 01:11:54;;;;;;;0.00;0.00;;;25.40;48.50;;;;;;5013878;28;20207;-41
2024/02/26 01:14:25;;;;;;;0.00;0.00;;;25.50;48.50;;;;;;5014285;28;20208;-41
2024/02/26 01:16:55;;;;;;;0.00;0.00;;;25.50;48.60;;;;;;5013795;28;20203;-41
2024/02/26 01:19:26;;;;;;;0.00;0.00;;;25.50;48.50;;;;;;5012862;28;20589;-42
2024/02/26 01:21:59;;;;;;;0.00;0.00;;;25.50;48.50;;;;;;5013777;28;20201;-42
2024/02/26 01:24:29;;;;;;;0.00;0.00;;;25.60;48.50;;;;;;5013755;28;20699;-42
2024/02/26 01:27:00;;;;;;;0.00;0.00;;;25.50;48.90;;;;;;5013679;28;20335;-41
2024/02/26 01:29:30;;;;;;;0.00;0.00;;;25.60;48.40;;;;;;5013286;28;20585;-42
2024/02/26 01:32:01;;;;;;;0.00;0.00;;;25.60;48.40;;;;;;5013278;28;20251;-42
2024/02/26 01:34:32;;;;;;;0.00;0.00;;;25.60;48.40;;;;;;5013425;28;20205;-41
2024/02/26 01:37:04;;;;;;;0.00;0.00;;;25.60;48.40;;;;;;5013563;28;20208;-41
2024/02/26 01:39:35;;;;;;;0.00;0.00;;;25.60;48.40;;;;;;5013188;28;20224;-43
2024/02/26 01:42:06;;;;;;;0.00;0.00;;;25.60;48.40;;;;;;5013488;28;20189;-42
2024/02/26 01:44:37;;;;;;;0.00;0.00;;;25.60;48.40;;;;;;5012571;28;20239;-41
2024/02/26 01:47:10;;;;;;;0.00;0.00;;;25.60;48.40;;;;;;5009200;28;20376;-44
2024/02/26 01:49:41;;;;;;;0.00;0.00;;;25.70;48.40;;;;;;5009320;28;20575;-42
2024/02/26 01:52:14;;;;;;;0.00;0.00;;;25.70;48.40;;;;;;4993693;28;20198;-41
2024/02/26 01:54:45;;;;;;;0.00;0.00;;;25.80;48.50;;;;;;4993418;28;20197;-45
2024/02/26 01:57:16;;;;;;;0.00;0.00;;;25.80;48.40;;;;;;4992991;28;20200;-41
2024/02/26 01:59:47;;;;;;;0.00;0.00;;;25.80;48.50;;;;;;4993227;28;20698;-45
2024/02/26 02:02:19;;;;;;;0.00;0.00;;;25.80;48.50;;;;;;4993000;28;20210;-42
2024/02/26 02:04:50;;;;;;;0.05;0.05;;;25.90;48.50;;;;;;4993361;28;20232;-42
2024/02/26 02:07:24;;;;;;;0.00;0.00;;;25.90;48.40;;;;;;5006465;28;20558;-41
2024/02/26 02:09:55;;;;;;;0.00;0.00;;;25.80;48.40;;;;;;5012372;28;20216;-41
2024/02/26 02:12:26;;;;;;;0.10;0.10;;;25.90;48.50;;;;;;5012425;28;20641;-42
2024/02/26 02:14:57;;;;;;;0.00;0.00;;;25.90;48.50;;;;;;5013101;28;20197;-41
2024/02/26 02:17:28;;;;;;;0.00;0.00;;;25.90;48.50;;;;;;5011748;28;20185;-41
2024/02/26 02:20:01;;;;;;;0.00;0.00;;;25.90;48.60;;;;;;5012181;28;20654;-42
2024/02/26 02:22:34;;;;;;;0.00;0.00;;;25.90;49.20;;;;;;5012308;28;20201;-42
2024/02/26 02:25:05;;;;;;;0.00;0.00;;;25.90;48.60;;;;;;5012727;28;20201;-41
2024/02/26 02:27:36;;;;;;;0.00;0.00;;;25.90;48.60;;;;;;5011884;28;20197;-42
2024/02/26 02:30:07;;;;;;;0.00;0.00;;;25.90;48.60;;;;;;5012499;28;20275;-42
2024/02/26 02:32:40;;;;;;;0.00;0.00;;;25.90;48.60;;;;;;4997761;28;20697;-41
2024/02/26 02:35:11;;;;;;;0.00;0.00;;;25.90;48.60;;;;;;5012627;28;20637;-42
2024/02/26 02:37:44;;;;;;;0.00;0.00;;;25.90;48.60;;;;;;5012403;28;20657;-41
2024/02/26 02:40:14;;;;;;;0.05;0.05;;;26.00;48.60;;;;;;5012542;28;20220;-42
2024/02/26 02:42:45;;;;;;;0.00;0.00;;;26.00;48.60;;;;;;5012359;28;20200;-41
2024/02/26 02:45:16;;;;;;;0.00;0.00;;;26.00;48.60;;;;;;5011937;28;20566;-42
2024/02/26 02:47:46;;;;;;;0.00;0.00;;;26.00;48.60;;;;;;5002197;28;20201;-41
2024/02/26 02:50:17;;;;;;;0.00;0.00;;;26.00;48.50;;;;;;4992345;28;20224;-42
2024/02/26 02:52:50;;;;;;;0.00;0.00;;;26.00;48.40;;;;;;4992671;28;20224;-42
2024/02/26 02:55:20;;;;;;;0.00;0.00;;;26.10;48.50;;;;;;4991615;28;20208;-42
2024/02/26 02:57:51;;;;;;;0.00;0.00;;;26.00;48.40;;;;;;4991943;28;20614;-42
2024/02/26 03:00:22;;;;;;;0.00;0.00;;;26.10;48.50;;;;;;4992342;28;20221;-42
2024/02/26 03:02:53;;;;;;;0.00;0.00;;;26.10;48.40;;;;;;4991980;28;20297;-42
2024/02/26 03:05:24;;;;;;;0.00;0.00;;;26.10;48.40;;;;;;4992100;28;20201;-41
2024/02/26 03:07:56;;;;;;;0.00;0.00;;;26.10;48.30;;;;;;5009294;28;20231;-41
2024/02/26 03:10:27;;;;;;;0.00;0.00;;;26.10;48.30;;;;;;5011757;28;20219;-41
2024/02/26 03:12:58;;;;;;;0.00;0.00;;;26.10;48.30;;;;;;5012011;28;20197;-42
2024/02/26 03:15:28;;;;;;;0.00;0.00;;;26.10;48.30;;;;;;5012325;28;20205;-42
2024/02/26 03:17:59;;;;;;;0.00;0.00;;;26.20;48.30;;;;;;5011713;28;20208;-42
2024/02/26 03:20:30;;;;;;;0.00;0.00;;;26.20;48.30;;;;;;5011489;28;20221;-41
2024/02/26 03:23:02;;;;;;;0.00;0.00;;;26.20;48.30;;;;;;5012067;28;20197;-42
2024/02/26 03:25:33;;;;;;;0.00;0.00;;;26.10;48.20;;;;;;5011981;28;20689;-42
2024/02/26 03:28:04;;;;;;;0.00;0.00;;;26.20;48.20;;;;;;5011814;28;20197;-42
2024/02/26 03:30:34;;;;;;;0.00;0.00;;;26.20;48.30;;;;;;5011219;28;20220;-42
2024/02/26 03:33:05;;;;;;;0.00;0.00;;;26.20;48.20;;;;;;5011308;28;20201;-41
2024/02/26 03:35:36;;;;;;;0.00;0.00;;;26.20;48.20;;;;;;5011871;28;20199;-41
2024/02/26 03:38:08;;;;;;;0.00;0.00;;;26.20;48.20;;;;;;5011680;28;20211;-42
2024/02/26 03:40:39;;;;;;;0.00;0.00;;;26.20;48.20;;;;;;5008017;28;20216;-42
2024/02/26 03:43:10;;;;;;;0.00;0.00;;;26.20;48.20;;;;;;5011444;28;20240;-42
2024/02/26 03:45:40;;;;;;;0.00;0.00;;;26.20;48.20;;;;;;5011304;28;20200;-41
2024/02/26 03:48:11;;;;;;;0.00;0.00;;;26.30;48.30;;;;;;4993859;28;20208;-42
2024/02/26 03:50:42;;;;;;;0.00;0.00;;;26.30;48.30;;;;;;4991186;28;20272;-41
2024/02/26 03:53:14;;;;;;;0.00;0.00;;;26.30;48.20;;;;;;4991456;28;20198;-42
2024/02/26 03:55:46;;;;;;;0.00;0.00;;;26.30;48.20;;;;;;4991512;28;20204;-42
2024/02/26 03:58:17;;;;;;;0.00;0.00;;;26.30;48.20;;;;;;4991586;28;20236;-42
2024/02/26 04:00:48;;;;;;;0.00;0.00;;;26.30;48.10;;;;;;4991595;28;20217;-43
2024/02/26 04:03:19;;;;;;;0.00;0.00;;;26.40;48.20;;;;;;4991254;28;20793;-42
2024/02/26 04:05:50;;;;;;;0.00;0.00;;;26.40;48.20;;;;;;4992352;28;20572;-46
2024/02/26 04:08:22;;;;;;;0.00;0.00;;;26.40;48.20;;;;;;5011223;28;20570;-41
2024/02/26 04:10:53;;;;;;;0.00;0.00;;;26.40;48.10;;;;;;5010298;28;20217;-41
2024/02/26 04:13:27;;;;;;;0.00;0.00;;;26.40;48.20;;;;;;5005041;28;20646;-51
2024/02/26 04:15:57;;;;;;;0.00;0.00;;;26.40;48.10;;;;;;4991841;28;20208;-45
2024/02/26 04:18:28;;;;;;;0.00;0.00;;;26.40;48.20;;;;;;4991203;28;20202;-41
2024/02/26 04:20:59;;;;;;;0.00;0.00;;;26.40;48.10;;;;;;5007456;28;20218;-41
2024/02/26 04:23:31;;;;;;;0.08;0.08;;;26.50;48.20;;;;;;5015037;28;20197;-41
2024/02/26 04:26:02;;;;;;;0.00;0.00;;;26.50;48.20;;;;;;5014435;28;20208;-42
2024/02/26 04:28:32;;;;;;;0.00;0.00;;;26.50;48.20;;;;;;5013908;28;20200;-41
2024/02/26 04:31:03;;;;;;;0.00;0.00;;;26.50;48.20;;;;;;5012934;28;20684;-41
2024/02/26 04:33:36;;;;;;;0.00;0.00;;;26.50;48.20;;;;;;5014615;28;20205;-43
2024/02/26 04:36:07;;;;;;;0.00;0.00;;;26.50;48.10;;;;;;5014287;28;20280;-42
2024/02/26 04:38:40;;;;;;;0.00;0.00;;;26.50;48.10;;;;;;5014306;28;20212;-42
2024/02/26 04:41:11;;;;;;;0.00;0.00;;;26.50;48.10;;;;;;5007174;28;20217;-41
2024/02/26 04:43:43;;;;;;;0.00;0.00;;;26.50;48.10;;;;;;4993792;28;20249;-41
2024/02/26 04:46:14;;;;;;;0.00;0.00;;;26.60;48.10;;;;;;4994391;28;20689;-41
2024/02/26 04:48:46;;;;;;;0.00;0.00;;;26.60;48.10;;;;;;4994325;28;20260;-41
2024/02/26 04:51:17;;;;;;;0.00;0.00;;;26.50;48.00;;;;;;4994412;28;20203;-41
2024/02/26 04:53:49;;;;;;;0.00;0.00;;;26.60;48.00;;;;;;4994090;28;20564;-41
2024/02/26 04:56:20;;;;;;;0.00;0.00;;;26.60;48.00;;;;;;4993789;28;20205;-41
2024/02/26 04:58:51;;;;;;;0.00;0.00;;;26.60;48.60;;;;;;4993675;28;20613;-42
2024/02/26 05:01:21;;;;;;;0.00;0.00;;;26.60;48.00;;;;;;4994129;28;20708;-41
2024/02/26 05:03:52;;;;;;;0.00;0.00;;;26.60;48.00;;;;;;4993916;28;20312;-43
2024/02/26 05:06:23;;;;;;;0.00;0.00;;;26.70;48.00;;;;;;5010884;28;20212;-41
2024/02/26 05:08:55;;;;;;;0.00;0.00;;;26.70;48.00;;;;;;5013354;28;20197;-42
2024/02/26 05:11:26;;;;;;;0.00;0.00;;;26.70;48.00;;;;;;5013762;28;20559;-41
2024/02/26 05:13:56;;;;;;;0.00;0.00;;;26.70;47.90;;;;;;5013877;28;20657;-43
2024/02/26 05:16:27;;;;;;;0.00;0.00;;;26.80;48.00;;;;;;5013648;28;20520;-41
2024/02/26 05:18:58;;;;;;;0.00;0.00;;;26.70;47.90;;;;;;5013586;28;20201;-41
2024/02/26 05:21:28;;;;;;;0.00;0.00;;;26.80;47.90;;;;;;5013701;28;20576;-43
2024/02/26 05:24:01;;;;;;;0.00;0.00;;;26.80;47.90;;;;;;5013236;28;20287;-42
2024/02/26 05:26:32;;;;;;;0.00;0.00;;;26.80;47.90;;;;;;5013352;28;20197;-42
2024/02/26 05:29:02;;;;;;;0.00;0.00;;;26.90;47.90;;;;;;5012339;28;20692;-43
2024/02/26 05:31:33;;;;;;;0.00;0.00;;;26.90;47.90;;;;;;5012755;28;20597;-42
2024/02/26 05:34:03;;;;;;;0.00;0.00;;;26.90;47.90;;;;;;5012824;28;20208;-43
2024/02/26 05:36:35;;;;;;;0.00;0.00;;;26.90;47.90;;;;;;5013602;28;20200;-41
2024/02/26 05:39:07;;;;;;;0.00;0.00;;;26.90;47.90;;;;;;5013274;28;20709;-41
2024/02/26 05:41:38;;;;;;;0.00;0.00;;;26.90;47.80;;;;;;5013185;28;20193;-42
2024/02/26 05:44:10;;;;;;;0.00;0.00;;;26.90;47.70;;;;;;5012693;28;20228;-41
2024/02/26 05:46:41;;;;;;;0.00;0.00;;;26.90;47.70;;;;;;5009273;28;20626;-42
2024/02/26 05:49:12;;;;;;;0.00;0.00;;;26.90;47.70;;;;;;5009549;28;20735;-42
2024/02/26 05:51:43;;;;;;;0.00;0.00;;;26.90;47.60;;;;;;5013137;28;20201;-41
2024/02/26 05:54:15;;;;;;;0.00;0.00;;;26.90;47.60;;;;;;5013013;28;20215;-41
2024/02/26 05:56:46;;;;;;;0.00;0.00;;;26.90;47.50;;;;;;5012294;28;20653;-42
2024/02/26 05:59:17;;;;;;;0.00;0.00;;;26.90;47.50;;;;;;5012397;28;20221;-42
2024/02/26 06:01:48;;;;;;;0.00;0.00;;;26.90;47.50;;;;;;5012219;28;20727;-42
2024/02/26 06:04:19;;;;;;;0.00;0.00;;;26.90;47.50;;;;;;5012772;28;20681;-42
2024/02/26 06:06:49;;;;;;;0.00;0.00;;;26.90;47.50;;;;;;5012641;28;20239;-45
2024/02/26 06:09:22;;;;;;;0.00;0.00;;;26.80;47.40;;;;;;5012301;28;20592;-41
2024/02/26 06:11:52;;;;;;;0.00;0.00;;;26.90;47.50;;;;;;5011459;28;20212;-42
2024/02/26 06:14:23;;;;;;;0.00;0.00;;;26.90;48.10;;;;;;5013001;28;20208;-41
2024/02/26 06:16:54;;;;;;;0.00;0.00;;;26.80;47.40;;;;;;5012369;28;20192;-41
2024/02/26 06:19:24;;;;;;;0.00;0.00;;;26.80;47.40;;;;;;5012252;28;20712;-41
2024/02/26 06:21:55;;;;;;;0.00;0.00;;;26.80;47.50;;;;;;5012308;28;20196;-42
2024/02/26 06:24:27;;;;;;;0.00;0.00;;;26.80;47.50;;;;;;5012250;28;20220;-42
2024/02/26 06:26:58;;;;;;;0.00;0.00;;;26.80;47.40;;;;;;5012193;28;20228;-43
2024/02/26 06:29:29;;;;;;;0.00;0.00;;;26.80;47.40;;;;;;5012770;28;20221;-41
2024/02/26 06:31:59;;;;;;;0.00;0.00;;;26.80;47.40;;;;;;5011824;28;20193;-41
2024/02/26 06:34:30;;;;;;;0.00;0.00;;;26.80;47.40;;;;;;4992767;28;20197;-42
2024/02/26 06:37:01;;;;;;;0.00;0.00;;;26.80;47.40;;;;;;5002915;28;20200;-45
2024/02/26 06:39:33;;;;;;;0.00;0.00;;;26.70;47.30;;;;;;5012469;28;20588;-41
2024/02/26 06:42:04;;;;;;;0.00;0.00;;;26.70;47.30;;;;;;5011725;28;20205;-41
2024/02/26 06:44:34;;;;;;;0.00;0.00;;;26.80;47.40;;;;;;5011561;28;20227;-41
2024/02/26 06:47:05;;;;;;;0.00;0.00;;;26.70;47.40;;;;;;5012096;28;20571;-41
2024/02/26 06:49:36;;;;;;;0.00;0.00;;;26.70;47.30;;;;;;5011917;28;20231;-42
2024/02/26 06:52:07;;;;;;;0.00;0.00;;;26.70;47.40;;;;;;4997872;28;20205;-42
2024/02/26 06:54:40;;;;;;;0.00;0.00;;;26.70;47.30;;;;;;4992437;28;20280;-42
2024/02/26 06:57:10;;;;;;;0.00;0.00;;;26.60;47.30;;;;;;4991781;28;20198;-44
2024/02/26 06:59:45;;;;;;;0.00;0.00;;;26.60;47.30;;;;;;4991592;28;20213;-42
2024/02/26 07:02:16;;;;;;;0.00;0.00;;;26.60;47.30;;;;;;4992112;28;20208;-41
2024/02/26 07:04:47;;;;;;;0.00;0.00;;;26.60;47.30;;;;;;4992294;28;20228;-41
2024/02/26 07:07:17;;;;;;;0.00;0.00;;;26.60;47.30;;;;;;5004811;28;20209;-43
2024/02/26 07:09:50;;;;;;;0.00;0.00;;;26.50;47.30;;;;;;5011811;28;20701;-41
2024/02/26 07:12:24;;;;;;;0.00;0.00;;;26.60;47.30;;;;;;5011441;28;20208;-42
2024/02/26 07:14:54;;;;;;;0.00;0.00;;;26.60;47.40;;;;;;5002764;28;20248;-45
2024/02/26 07:17:25;;;;;;;0.00;0.00;;;26.50;47.30;;;;;;4992114;28;20208;-43
2024/02/26 07:19:56;;;;;;;0.00;0.00;;;26.50;47.30;;;;;;4991655;28;20708;-42
2024/02/26 07:22:26;;;;;;;0.00;0.00;;;26.50;47.30;;;;;;4992284;28;20676;-41
2024/02/26 07:24:59;;;;;;;0.00;0.00;;;26.50;47.30;;;;;;4992175;28;20252;-41
2024/02/26 07:27:30;;;;;;;0.00;0.00;;;26.50;47.30;;;;;;4991786;28;20193;-42
2024/02/26 07:30:00;;;;;;;0.00;0.00;;;26.50;47.30;;;;;;4992237;28;20224;-42
2024/02/26 07:32:29;;;;;;;0.00;0.00;;;26.50;47.30;;;;;;4992193;28;20546;-45
2024/02/26 07:35:00;;;;;;;0.00;0.00;;;26.40;47.30;;;;;;4991276;28;20209;-41
2024/02/26 07:37:31;;;;;;;0.00;0.00;;;26.50;47.30;;;;;;5005622;28;20201;-43
2024/02/26 07:40:03;;;;;;;0.00;0.00;;;26.40;47.20;;;;;;5011268;28;20357;-41
2024/02/26 07:42:34;;;;;;;0.00;0.00;;;26.50;47.30;;;;;;5011011;28;20201;-42
2024/02/26 07:45:05;;;;;;;0.00;0.00;;;26.40;47.30;;;;;;5011166;28;20235;-42
2024/02/26 07:47:37;;;;;;;0.00;0.00;;;26.40;47.30;;;;;;5007650;28;20241;-41
2024/02/26 07:50:09;;;;;;;0.00;0.00;;;26.40;47.30;;;;;;5010838;28;20274;-41
2024/02/26 07:52:39;;;;;;;0.00;0.00;;;26.40;47.30;;;;;;5011228;28;20197;-41
2024/02/26 07:55:12;;;;;;;0.00;0.00;;;26.40;47.30;;;;;;5013657;28;20652;-41
2024/02/26 07:57:46;;;;;;;0.00;0.00;;;26.30;47.30;;;;;;5014951;28;20205;-42
2024/02/26 08:00:17;;;;;;;0.00;0.00;;;26.30;47.30;;;;;;5015371;28;20685;-41
2024/02/26 08:02:48;;;;;;;0.00;0.00;;;26.30;47.30;;;;;;5015370;28;20209;-41
2024/02/26 08:05:19;;;;;;;0.00;0.00;;;26.30;47.30;;;;;;5013986;28;20635;-41
2024/02/26 08:07:50;;;;;;;0.00;0.00;;;26.30;47.30;;;;;;5014459;28;20197;-41
2024/02/26 08:10:22;;;;;;;0.00;0.00;;;26.30;47.30;;;;;;5014206;28;20212;-43
2024/02/26 08:12:53;;;;;;;0.00;0.00;;;26.30;47.30;;;;;;5008543;28;20197;-42
2024/02/26 08:15:24;;;;;;;0.00;0.00;;;26.30;47.30;;;;;;5000009;28;20203;-45
2024/02/26 08:17:54;;;;;;;0.00;0.00;;;26.30;47.30;;;;;;4991371;28;20214;-44
2024/02/26 08:20:25;;;;;;;0.00;0.00;;;26.20;47.20;;;;;;4991373;28;20221;-43
2024/02/26 08:22:56;;;;;;;0.00;0.00;;;26.20;47.30;;;;;;4991813;28;20205;-43
2024/02/26 08:25:28;;;;;;;0.00;0.00;;;26.20;47.30;;;;;;4990946;28;20617;-42
2024/02/26 08:27:59;;;;;;;0.00;0.00;;;26.20;47.30;;;;;;4992173;28;20202;-45
2024/02/26 08:30:29;;;;;;;0.00;0.00;;;26.20;47.40;;;;;;5010955;28;20217;-43
2024/02/26 08:33:00;;;;;;;0.00;0.00;;;26.20;47.40;;;;;;5011072;28;20216;-45
2024/02/26 08:35:31;;;;;;;0.00;0.00;;;26.20;47.50;;;;;;5010367;28;20211;-47
2024/02/26 08:38:01;;;;;;;0.00;0.00;;;26.20;47.60;;;;;;5009756;28;20464;-43
2024/02/26 08:40:34;;;;;;;0.00;0.00;;;26.20;47.70;;;;;;5025007;28;20216;-42
2024/02/26 08:43:05;;;;;;;0.00;0.00;;;26.20;47.70;;;;;;5029595;28;20667;-42
2024/02/26 08:45:35;;;;;;;0.00;0.00;;;26.10;47.70;;;;;;5029882;28;20235;-42
2024/02/26 08:48:06;;;;;;;0.00;0.00;;;26.10;47.80;;;;;;5030218;28;20195;-42
2024/02/26 08:50:37;;;;;;;0.00;0.00;;;26.10;47.80;;;;;;5029941;28;20596;-42
2024/02/26 08:53:07;;;;;;;0.00;0.00;;;26.10;47.80;;;;;;5024150;28;20291;-43
2024/02/26 08:55:40;;;;;;;0.00;0.00;;;26.20;48.00;;;;;;5030549;28;20204;-44
2024/02/26 08:58:10;;;;;;;0.00;0.00;;;26.10;47.90;;;;;;5030267;28;20205;-44
2024/02/26 09:00:41;;;;;;;0.00;0.00;;;26.10;47.70;;;;;;5014220;28;20219;-43
2024/02/26 09:03:12;;;;;;;0.00;0.00;;;26.00;47.40;;;;;;5009728;28;20212;-41
2024/02/26 09:05:42;;;;;;;0.00;0.00;;;26.00;47.30;;;;;;5010497;28;20229;-46
2024/02/26 09:08:13;;;;;;;0.00;0.00;;;26.00;47.60;;;;;;5002787;28;20450;-42
2024/02/26 09:10:46;;;;;;;0.00;0.00;;;26.00;47.10;;;;;;5009795;28;20224;-41
2024/02/26 09:13:16;;;;;;;0.00;0.00;;;25.90;47.00;;;;;;5009347;28;20197;-42
2024/02/26 09:15:47;;;;;;;0.00;0.00;;;25.90;46.90;;;;;;5010365;28;20629;-41
2024/02/26 09:18:18;;;;;;;0.00;0.00;;;25.90;46.90;;;;;;5012465;28;20289;-41
2024/02/26 09:20:48;;;;;;;0.00;0.00;;;25.80;46.80;;;;;;5029132;28;20228;-43
2024/02/26 09:23:19;;;;;;;0.00;0.00;;;25.80;46.80;;;;;;5029931;28;20200;-42
2024/02/26 09:25:52;;;;;;;0.00;0.00;;;25.80;46.90;;;;;;5028950;28;20250;-42
2024/02/26 09:28:22;;;;;;;0.00;0.00;;;25.80;47.00;;;;;;5030149;28;20200;-42
2024/02/26 09:30:54;;;;;;;0.00;0.00;;;25.70;47.10;;;;;;5029178;28;20216;-42
2024/02/26 09:33:25;;;;;;;0.00;0.00;;;25.70;47.40;;;;;;4990508;28;20677;-42
2024/02/26 09:35:55;;;;;;;0.00;0.00;;;25.70;47.50;;;;;;4991602;28;20213;-42
2024/02/26 09:38:26;;;;;;;0.00;0.00;;;25.70;47.50;;;;;;5009704;28;20208;-42
2024/02/26 09:40:59;;;;;;;0.00;0.00;;;25.60;47.40;;;;;;5008860;28;20696;-43
2024/02/26 09:43:35;;;;;;;0.00;0.00;;;25.60;47.50;;;;;;5008946;28;20466;-43
2024/02/26 09:46:06;;;;;;;0.00;0.00;;;25.60;47.60;;;;;;5027844;28;20235;-42
2024/02/26 09:48:38;;;;;;;0.00;0.00;;;25.50;47.70;;;;;;5028667;28;20211;-42
2024/02/26 09:51:09;;;;;;;0.00;0.00;;;25.50;48.00;;;;;;5022028;28;20213;-42
2024/02/26 09:53:42;;;;;;;0.00;0.00;;;25.50;48.20;;;;;;4992071;28;20685;-43
2024/02/26 09:56:15;;;;;;;0.00;0.00;;;25.50;48.20;;;;;;4997600;28;20543;-42
2024/02/26 09:58:48;;;;;;;0.00;0.00;;;25.50;48.20;;;;;;4989832;28;20606;-41
2024/02/26 10:01:24;;;;;;;0.00;0.00;;;25.50;48.20;;;;;;4988878;28;20684;-42
2024/02/26 10:03:59;;;;;;;0.00;0.00;;;25.40;48.10;;;;;;4989316;28;20197;-42
2024/02/26 10:06:30;;;;;;;0.00;0.00;;;25.40;48.10;;;;;;4993387;28;20235;-42
2024/02/26 10:09:01;;;;;;;0.00;0.00;;;25.40;48.30;;;;;;5012773;28;20200;-43
2024/02/26 10:11:34;;;;;;;0.00;0.00;;;25.40;48.30;;;;;;5027631;28;20538;-42
2024/02/26 10:14:05;;;;;;;0.00;0.00;;;25.30;48.40;;;;;;5029000;28;20207;-43
2024/02/26 10:16:36;;;;;;;0.00;0.00;;;25.30;48.30;;;;;;5028948;28;20682;-43
2024/02/26 10:19:06;;;;;;;0.00;0.00;;;25.30;48.20;;;;;;5029028;28;20216;-43
2024/02/26 10:21:37;;;;;;;0.00;0.00;;;25.30;48.20;;;;;;5028243;28;20715;-42
2024/02/26 10:24:15;;;;;;;0.05;0.05;;;25.30;48.30;;;;;;5027948;28;20196;-42
2024/02/26 10:26:52;;;;;;;0.00;0.00;;;25.30;48.20;;;;;;5027774;28;20695;-43
2024/02/26 10:29:23;;;;;;;0.00;0.00;;;25.20;48.10;;;;;;5028050;28;20634;-42
2024/02/26 10:31:55;;;;;;;0.00;0.00;;;25.20;48.10;;;;;;5018872;28;20385;-42
2024/02/26 10:34:26;;;;;;;0.00;0.00;;;25.20;48.20;;;;;;5008119;28;20208;-43
2024/02/26 10:36:57;;;;;;;0.00;0.00;;;25.10;48.30;;;;;;5012200;28;20622;-42
2024/02/26 10:39:28;;;;;;;0.00;0.00;;;25.10;48.40;;;;;;5006489;28;20299;-42
2024/02/26 10:42:06;;;;;;;0.00;0.00;;;25.10;48.50;;;;;;5008523;28;20676;-42
2024/02/26 10:44:37;;;;;;;0.00;0.00;;;25.10;48.50;;;;;;5007931;28;20204;-42
2024/02/26 10:47:08;;;;;;;0.00;0.00;;;25.10;48.50;;;;;;5006942;28;20580;-43
2024/02/26 10:49:40;;;;;;;0.00;0.00;;;25.10;48.40;;;;;;5020428;28;20691;-42
2024/02/26 10:52:11;;;;;;;0.00;0.00;;;25.10;48.30;;;;;;5027267;28;20206;-42
2024/02/26 10:54:47;;;;;;;0.00;0.00;;;25.00;48.20;;;;;;5028108;28;20204;-43
2024/02/26 10:57:20;;;;;;;0.10;0.10;;;25.00;48.20;;;;;;5027801;28;20648;-42
2024/02/26 10:59:53;;;;;;;0.00;0.00;;;25.00;48.20;;;;;;5024809;28;20220;-42
2024/02/26 11:02:24;;;;;;;0.00;0.00;;;25.00;48.20;;;;;;4997164;28;20246;-41
2024/02/26 11:04:55;;;;;;;0.00;0.00;;;25.00;48.20;;;;;;5028227;28;20195;-43
2024/02/26 11:07:27;;;;;;;0.00;0.00;;;24.90;48.20;;;;;;5013975;28;20224;-42
2024/02/26 11:09:59;;;;;;;0.00;0.00;;;24.90;48.20;;;;;;5008126;28;20248;-43
2024/02/26 11:12:35;;;;;;;0.00;0.00;;;24.90;48.20;;;;;;5008300;28;20212;-41
2024/02/26 11:15:06;;;;;;;0.00;0.00;;;24.90;48.20;;;;;;5011398;28;20242;-47
2024/02/26 11:17:39;;;;;;;0.00;0.00;;;24.90;48.20;;;;;;5011099;28;20192;-44
2024/02/26 11:20:14;;;;;;;0.00;0.00;;;24.90;48.30;;;;;;4999560;28;20220;-43
2024/02/26 11:22:45;;;;;;;0.00;0.00;;;24.90;48.30;;;;;;5001081;28;20614;-42
2024/02/26 11:25:16;;;;;;;0.00;0.00;;;24.90;48.30;;;;;;5000184;28;20198;-43
2024/02/26 11:27:53;;;;;;;0.00;0.00;;;24.90;48.30;;;;;;5000157;28;20228;-48
2024/02/26 11:30:24;;;;;;;0.00;0.00;;;24.90;48.40;;;;;;5006276;28;20212;-45
2024/02/26 11:32:56;;;;;;;0.10;0.10;;;24.90;48.30;;;;;;4999916;28;20197;-48
2024/02/26 11:35:28;;;;;;;0.00;0.00;;;24.80;48.30;;;;;;4997273;28;20197;-44
2024/02/26 11:38:01;;;;;;;0.00;0.00;;;24.80;48.30;;;;;;5016105;28;20204;-43
2024/02/26 11:40:33;;;;;;;0.00;0.00;;;24.80;48.30;;;;;;5017513;28;20212;-45
2024/02/26 11:43:06;;;;;;;0.00;0.00;;;24.80;48.30;;;;;;5017700;28;20207;-42
2024/02/26 11:45:56;;;;;;;0.00;0.00;;;24.80;48.30;;;;;;5017823;28;20200;-43
2024/02/26 11:48:28;;;;;;;0.00;0.00;;;24.70;48.20;;;;;;5014641;28;20192;-46
2024/02/26 11:51:00;;;;;;;0.00;0.00;;;24.70;48.20;;;;;;5017539;28;20216;-44
2024/02/26 11:53:31;;;;;;;0.00;0.00;;;24.70;48.20;;;;;;5017807;28;20208;-44
2024/02/26 11:56:27;;;;;;;0.10;0.10;;;24.70;48.30;;;;;;5017591;28;20695;-43
2024/02/26 11:59:08;;;;;;;0.00;0.00;;;24.70;48.30;;;;;;5017317;28;20231;-43
2024/02/26 12:01:47;;;;;;;0.03;0.03;;;24.70;48.30;;;;;;5013988;28;20705;-42
2024/02/26 12:04:20;;;;;;;0.00;0.00;;;24.70;48.30;;;;;;5017485;28;20197;-43
2024/02/26 12:06:55;;;;;;;0.00;0.00;;;24.60;48.30;;;;;;5016633;28;20267;-44
2024/02/26 12:09:39;;;;;;;0.00;0.00;;;24.60;48.40;;;;;;5017210;28;20683;-43
2024/02/26 12:12:11;;;;;;;0.00;0.00;;;24.60;48.40;;;;;;5017470;28;20200;-43
2024/02/26 12:14:53;;;;;;;0.00;0.00;;;24.60;48.40;;;;;;5018195;28;20200;-44
2024/02/26 12:17:24;;;;;;;0.00;0.00;;;24.60;48.40;;;;;;5017791;28;20632;-45
2024/02/26 12:19:55;;;;;;;0.10;0.10;;;24.60;48.40;;;;;;5017507;28;20578;-42
2024/02/26 12:22:27;;;;;;;0.00;0.00;;;24.60;48.50;;;;;;5017386;28;20680;-42
2024/02/26 12:25:03;;;;;;;0.00;0.00;;;24.60;48.40;;;;;;5017565;28;20390;-43
2024/02/26 12:27:33;;;;;;;0.10;0.10;;;24.50;48.40;;;;;;5016916;28;20220;-42
2024/02/26 12:30:07;;;;;;;0.00;0.00;;;24.50;48.40;;;;;;5017744;28;20217;-41
2024/02/26 12:32:38;;;;;;;0.00;0.00;;;24.50;48.40;;;;;;5017625;28;20200;-42
2024/02/26 12:35:09;;;;;;;0.00;0.00;;;24.50;48.40;;;;;;5017450;28;20236;-43
2024/02/26 12:37:40;;;;;;;0.00;0.00;;;24.50;48.40;;;;;;5017484;28;20224;-42
2024/02/26 12:40:13;;;;;;;0.00;0.00;;;24.50;48.40;;;;;;5016021;28;20216;-42
2024/02/26 12:42:43;;;;;;;0.00;0.00;;;24.50;48.40;;;;;;5013367;28;20547;-42
2024/02/26 12:45:17;;;;;;;0.00;0.00;;;24.40;48.30;;;;;;5014071;28;20204;-43
2024/02/26 12:47:49;;;;;;;0.00;0.00;;;24.40;48.30;;;;;;5010988;28;20220;-45
2024/02/26 12:50:20;;;;;;;0.00;0.00;;;24.40;48.30;;;;;;4994394;28;20276;-43
2024/02/26 12:52:52;;;;;;;0.10;0.10;;;24.40;48.40;;;;;;4994287;28;20193;-42
2024/02/26 12:55:23;;;;;;;0.00;0.00;;;24.40;48.40;;;;;;4994523;28;20201;-42
2024/02/26 12:57:54;;;;;;;0.00;0.00;;;24.40;48.50;;;;;;4994614;28;20209;-42
2024/02/26 13:00:29;;;;;;;0.00;0.00;;;24.40;48.40;;;;;;4994052;28;20221;-41
2024/02/26 13:03:02;;;;;;;0.00;0.00;;;24.40;48.60;;;;;;4994136;28;20209;-43
2024/02/26 13:05:33;;;;;;;0.00;0.00;;;24.30;48.50;;;;;;4994098;28;20205;-42
2024/02/26 13:08:04;;;;;;;0.05;0.05;;;24.30;48.50;;;;;;5012669;28;20260;-42
2024/02/26 13:10:36;;;;;;;0.00;0.00;;;24.30;48.50;;;;;;5013313;28;20217;-42